Time,TemperatureF,DewpointF,PressureIn,WindDirection,WindDirectionDegrees,WindSpeedMPH,WindSpeedGustMPH,Humidity,HourlyPrecipIn,Conditions,Clouds,dailyrainin,SoftwareType,DateUTC
2013-09-16 00:02:00,79.9,68.7,30.05,East,90,3.0,4.0,69,0.00,,,0.00,meteohub,2013-09-16 05:02:00,
2013-09-16 00:07:00,79.9,69.6,30.06,East,90,2.0,3.0,71,0.00,,,0.00,meteohub,2013-09-16 05:07:00,
2013-09-16 00:12:00,79.9,69.6,30.06,East,90,4.0,4.0,71,0.00,,,0.00,meteohub,2013-09-16 05:12:00,
2013-09-16 00:17:00,80.1,69.8,30.05,North,0,2.0,4.0,71,0.00,,,0.00,meteohub,2013-09-16 05:17:00,
2013-09-16 00:22:00,80.1,69.8,30.06,NE,45,1.0,4.0,71,0.00,,,0.00,meteohub,2013-09-16 05:22:00,
2013-09-16 00:27:00,79.9,69.6,30.06,NE,45,1.0,4.0,71,0.00,,,0.00,meteohub,2013-09-16 05:27:00,
2013-09-16 00:32:00,79.7,69.4,30.05,NE,45,1.0,2.0,71,0.00,,,0.00,meteohub,2013-09-16 05:32:00,
2013-09-16 00:37:00,79.7,69.4,30.06,NE,45,1.0,2.0,71,0.00,,,0.00,meteohub,2013-09-16 05:37:00,
2013-09-16 00:43:00,79.3,69.4,30.06,NE,45,0.0,2.0,72,0.00,,,0.00,meteohub,2013-09-16 05:43:00,
2013-09-16 00:48:00,79.0,69.3,30.05,NE,45,1.0,1.0,72,0.00,,,0.00,meteohub,2013-09-16 05:48:00,
2013-09-16 00:53:00,78.8,69.4,30.06,NE,45,0.0,1.0,73,0.00,,,0.00,meteohub,2013-09-16 05:53:00,
2013-09-16 00:58:00,78.6,69.6,30.06,NE,45,0.0,1.0,74,0.00,,,0.00,meteohub,2013-09-16 05:58:00,
2013-09-16 01:03:00,78.6,69.6,30.06,NE,45,0.0,1.0,74,0.00,,,0.00,meteohub,2013-09-16 06:03:00,
2013-09-16 01:08:00,78.3,69.3,30.06,NE,45,0.0,1.0,74,0.00,,,0.00,meteohub,2013-09-16 06:08:00,
2013-09-16 01:13:00,77.9,68.9,30.05,NE,45,0.0,0.0,74,0.00,,,0.00,meteohub,2013-09-16 06:13:00,
2013-09-16 01:18:00,77.7,69.1,30.06,NE,45,0.0,0.0,75,0.00,,,0.00,meteohub,2013-09-16 06:18:00,
2013-09-16 01:23:00,77.5,68.9,30.06,NE,45,0.0,0.0,75,0.00,,,0.00,meteohub,2013-09-16 06:23:00,
2013-09-16 01:28:00,77.4,68.9,30.06,NE,45,0.0,0.0,75,0.00,,,0.00,meteohub,2013-09-16 06:28:00,
2013-09-16 01:33:00,77.2,69.1,30.06,NE,45,0.0,0.0,76,0.00,,,0.00,meteohub,2013-09-16 06:33:00,
2013-09-16 01:39:00,77.0,68.9,30.06,NE,45,0.0,0.0,76,0.00,,,0.00,meteohub,2013-09-16 06:39:00,
2013-09-16 01:44:00,76.6,68.9,30.06,NE,45,0.0,0.0,77,0.00,,,0.00,meteohub,2013-09-16 06:44:00,
2013-09-16 01:49:00,76.5,69.1,30.06,NE,45,0.0,0.0,78,0.00,,,0.00,meteohub,2013-09-16 06:49:00,
2013-09-16 01:54:00,76.1,68.7,30.05,NE,45,0.0,0.0,78,0.00,,,0.00,meteohub,2013-09-16 06:54:00,
2013-09-16 01:59:00,75.9,68.5,30.05,NE,45,0.0,0.0,78,0.00,,,0.00,meteohub,2013-09-16 06:59:00,
2013-09-16 02:04:00,75.7,68.7,30.06,NE,45,0.0,0.0,79,0.00,,,0.00,meteohub,2013-09-16 07:04:00,
2013-09-16 02:09:00,75.6,68.5,30.06,NE,45,0.0,0.0,79,0.00,,,0.00,meteohub,2013-09-16 07:09:00,
2013-09-16 02:14:00,75.6,68.9,30.05,NE,45,0.0,0.0,80,0.00,,,0.00,meteohub,2013-09-16 07:14:00,
2013-09-16 02:19:00,75.4,68.7,30.05,NE,45,0.0,0.0,80,0.00,,,0.00,meteohub,2013-09-16 07:19:00,
2013-09-16 02:24:00,75.4,68.7,30.05,NE,45,0.0,0.0,80,0.00,,,0.00,meteohub,2013-09-16 07:24:00,
2013-09-16 02:30:00,75.2,68.9,30.05,NE,45,0.0,0.0,81,0.00,,,0.00,meteohub,2013-09-16 07:30:00,
2013-09-16 02:35:00,75.0,69.1,30.06,NE,45,0.0,0.0,82,0.00,,,0.00,meteohub,2013-09-16 07:35:00,
2013-09-16 02:40:00,74.8,68.9,30.05,NE,45,0.0,0.0,82,0.00,,,0.00,meteohub,2013-09-16 07:40:00,
2013-09-16 02:45:00,74.7,69.1,30.05,NE,45,0.0,2.0,83,0.00,,,0.00,meteohub,2013-09-16 07:45:00,
2013-09-16 02:50:00,74.3,68.7,30.05,NE,45,0.0,2.0,83,0.00,,,0.00,meteohub,2013-09-16 07:50:00,
2013-09-16 02:55:00,74.3,68.7,30.05,NE,45,0.0,2.0,83,0.00,,,0.00,meteohub,2013-09-16 07:55:00,
2013-09-16 03:00:00,74.1,68.9,30.05,NE,45,0.0,0.0,84,0.00,,,0.00,meteohub,2013-09-16 08:00:00,
2013-09-16 03:05:00,74.1,68.9,30.05,NE,45,0.0,0.0,84,0.00,,,0.00,meteohub,2013-09-16 08:05:00,
2013-09-16 03:10:00,73.6,68.4,30.05,NE,45,0.0,0.0,84,0.00,,,0.00,meteohub,2013-09-16 08:10:00,
2013-09-16 03:16:00,73.6,68.7,30.05,NE,45,0.0,0.0,85,0.00,,,0.00,meteohub,2013-09-16 08:16:00,
2013-09-16 03:21:00,73.2,68.2,30.05,NE,45,0.0,0.0,84,0.00,,,0.00,meteohub,2013-09-16 08:21:00,
2013-09-16 03:26:00,73.0,68.0,30.05,NE,45,0.0,0.0,84,0.00,,,0.00,meteohub,2013-09-16 08:26:00,
2013-09-16 03:31:00,72.9,67.8,30.06,NE,45,0.0,0.0,84,0.00,,,0.00,meteohub,2013-09-16 08:31:00,
2013-09-16 03:36:00,72.7,67.6,30.05,NE,45,0.0,0.0,84,0.00,,,0.00,meteohub,2013-09-16 08:36:00,
2013-09-16 03:41:00,72.5,67.5,30.06,NE,45,0.0,0.0,84,0.00,,,0.00,meteohub,2013-09-16 08:41:00,
2013-09-16 03:46:00,72.3,67.6,30.06,NE,45,0.0,0.0,85,0.00,,,0.00,meteohub,2013-09-16 08:46:00,
2013-09-16 03:51:00,72.1,67.5,30.06,NE,45,0.0,0.0,85,0.00,,,0.00,meteohub,2013-09-16 08:51:00,
2013-09-16 03:56:00,72.0,67.3,30.06,NE,45,0.0,0.0,85,0.00,,,0.00,meteohub,2013-09-16 08:56:00,
2013-09-16 04:01:00,72.0,67.5,30.05,NE,45,0.0,0.0,86,0.00,,,0.00,meteohub,2013-09-16 09:01:00,
2013-09-16 04:06:00,71.8,67.3,30.06,NE,45,0.0,0.0,86,0.00,,,0.00,meteohub,2013-09-16 09:06:00,
2013-09-16 04:11:00,71.6,67.1,30.05,NE,45,0.0,0.0,86,0.00,,,0.00,meteohub,2013-09-16 09:11:00,
2013-09-16 04:17:00,71.4,67.6,30.05,NE,45,0.0,0.0,88,0.00,,,0.00,meteohub,2013-09-16 09:17:00,
2013-09-16 04:22:00,71.2,67.5,30.06,NE,45,0.0,0.0,88,0.00,,,0.00,meteohub,2013-09-16 09:22:00,
2013-09-16 04:27:00,71.2,67.5,30.06,NE,45,0.0,0.0,88,0.00,,,0.00,meteohub,2013-09-16 09:27:00,
2013-09-16 04:32:00,71.1,67.3,30.06,NE,45,0.0,0.0,88,0.00,,,0.00,meteohub,2013-09-16 09:32:00,
2013-09-16 04:37:00,71.1,67.3,30.06,NE,45,0.0,0.0,88,0.00,,,0.00,meteohub,2013-09-16 09:37:00,
2013-09-16 04:42:00,70.9,67.5,30.06,NE,45,0.0,0.0,89,0.00,,,0.00,meteohub,2013-09-16 09:42:00,
2013-09-16 04:47:00,70.7,67.3,30.06,NE,45,0.0,0.0,89,0.00,,,0.00,meteohub,2013-09-16 09:47:00,
2013-09-16 04:52:00,70.7,67.3,30.06,NE,45,0.0,0.0,89,0.00,,,0.00,meteohub,2013-09-16 09:52:00,
2013-09-16 04:57:00,70.5,67.1,30.06,NE,45,0.0,0.0,89,0.00,,,0.00,meteohub,2013-09-16 09:57:00,
2013-09-16 05:02:00,70.5,67.5,30.06,NE,45,0.0,0.0,90,0.00,,,0.00,meteohub,2013-09-16 10:02:00,
2013-09-16 05:07:00,70.5,67.5,30.06,NE,45,0.0,0.0,90,0.00,,,0.00,meteohub,2013-09-16 10:07:00,
2013-09-16 05:12:00,70.3,66.9,30.06,NE,45,0.0,0.0,89,0.00,,,0.00,meteohub,2013-09-16 10:12:00,
2013-09-16 05:17:00,70.2,67.1,30.06,NE,45,0.0,0.0,90,0.00,,,0.00,meteohub,2013-09-16 10:17:00,
2013-09-16 05:22:00,70.2,67.1,30.06,NE,45,0.0,0.0,90,0.00,,,0.00,meteohub,2013-09-16 10:22:00,
2013-09-16 05:27:00,70.0,66.9,30.07,NE,45,0.0,0.0,90,0.00,,,0.00,meteohub,2013-09-16 10:27:00,
2013-09-16 05:32:00,70.0,66.9,30.07,NE,45,0.0,0.0,90,0.00,,,0.00,meteohub,2013-09-16 10:32:00,
2013-09-16 05:37:00,70.0,67.3,30.07,NE,45,0.0,0.0,91,0.00,,,0.00,meteohub,2013-09-16 10:37:00,
2013-09-16 05:42:00,70.0,67.3,30.07,NE,45,0.0,0.0,91,0.00,,,0.00,meteohub,2013-09-16 10:42:00,
2013-09-16 05:47:00,70.0,67.3,30.07,NE,45,0.0,0.0,91,0.00,,,0.00,meteohub,2013-09-16 10:47:00,
2013-09-16 05:52:00,70.3,67.8,30.07,NE,45,0.0,0.0,92,0.00,,,0.00,meteohub,2013-09-16 10:52:00,
2013-09-16 05:57:00,70.5,68.0,30.07,NE,45,0.0,0.0,92,0.00,,,0.00,meteohub,2013-09-16 10:57:00,
2013-09-16 06:02:00,70.9,68.2,30.07,NE,45,0.0,0.0,91,0.00,,,0.00,meteohub,2013-09-16 11:02:00,
2013-09-16 06:07:00,70.9,68.2,30.07,NE,45,0.0,0.0,91,0.00,,,0.00,meteohub,2013-09-16 11:07:00,
2013-09-16 06:13:00,71.1,68.4,30.07,NE,45,0.0,0.0,91,0.00,,,0.00,meteohub,2013-09-16 11:13:00,
2013-09-16 06:18:00,71.1,68.0,30.06,NE,45,0.0,0.0,90,0.00,,,0.00,meteohub,2013-09-16 11:18:00,
2013-09-16 06:23:00,71.1,68.0,30.07,NE,45,0.0,0.0,90,0.00,,,0.00,meteohub,2013-09-16 11:23:00,
2013-09-16 06:28:00,70.9,67.8,30.07,NE,45,0.0,0.0,90,0.00,,,0.00,meteohub,2013-09-16 11:28:00,
2013-09-16 06:33:00,70.5,67.5,30.07,NE,45,0.0,0.0,90,0.00,,,0.00,meteohub,2013-09-16 11:33:00,
2013-09-16 06:38:00,70.3,67.3,30.07,NE,45,0.0,0.0,90,0.00,,,0.00,meteohub,2013-09-16 11:38:00,
2013-09-16 06:43:00,70.2,67.1,30.07,NE,45,0.0,0.0,90,0.00,,,0.00,meteohub,2013-09-16 11:43:00,
2013-09-16 06:48:00,70.0,66.9,30.08,NE,45,0.0,0.0,90,0.00,,,0.00,meteohub,2013-09-16 11:48:00,
2013-09-16 06:53:00,69.8,67.1,30.07,NE,45,0.0,0.0,91,0.00,,,0.00,meteohub,2013-09-16 11:53:00,
2013-09-16 06:58:00,69.8,67.1,30.08,NE,45,0.0,0.0,91,0.00,,,0.00,meteohub,2013-09-16 11:58:00,
2013-09-16 07:03:00,69.8,67.3,30.08,NE,45,0.0,0.0,92,0.00,,,0.00,meteohub,2013-09-16 12:03:00,
2013-09-16 07:08:00,70.0,67.5,30.08,NE,45,0.0,0.0,92,0.00,,,0.00,meteohub,2013-09-16 12:08:00,
2013-09-16 07:13:00,70.2,67.6,30.09,South,180,0.0,0.0,92,0.00,,,0.00,meteohub,2013-09-16 12:13:00,
2013-09-16 07:18:00,70.5,68.4,30.08,South,180,0.0,1.0,93,0.00,,,0.00,meteohub,2013-09-16 12:18:00,
2013-09-16 07:23:00,70.5,68.4,30.09,South,180,0.0,1.0,93,0.00,,,0.00,meteohub,2013-09-16 12:23:00,
2013-09-16 07:28:00,70.5,68.4,30.08,South,180,0.0,1.0,93,0.00,,,0.00,meteohub,2013-09-16 12:28:00,
2013-09-16 07:33:00,70.5,68.0,30.09,South,180,0.0,0.0,92,0.00,,,0.00,meteohub,2013-09-16 12:33:00,
2013-09-16 07:38:00,70.5,68.0,30.09,South,180,0.0,0.0,92,0.00,,,0.00,meteohub,2013-09-16 12:38:00,
2013-09-16 07:44:00,70.5,68.0,30.09,South,180,0.0,0.0,92,0.00,,,0.00,meteohub,2013-09-16 12:44:00,
2013-09-16 07:48:00,70.7,68.2,30.10,South,180,0.0,0.0,92,0.00,,,0.00,meteohub,2013-09-16 12:48:00,
2013-09-16 07:53:00,71.1,68.5,30.10,South,180,0.0,0.0,92,0.00,,,0.00,meteohub,2013-09-16 12:53:00,
2013-09-16 07:58:00,71.2,69.1,30.10,South,180,0.0,0.0,93,0.00,,,0.00,meteohub,2013-09-16 12:58:00,
2013-09-16 08:03:00,71.6,69.1,30.10,South,180,0.0,0.0,92,0.00,,,0.00,meteohub,2013-09-16 13:03:00,
2013-09-16 08:09:00,72.1,69.4,30.10,South,180,0.0,0.0,91,0.00,,,0.00,meteohub,2013-09-16 13:09:00,
2013-09-16 08:14:00,72.5,69.8,30.10,South,180,0.0,0.0,91,0.00,,,0.00,meteohub,2013-09-16 13:14:00,
2013-09-16 08:19:00,73.0,70.3,30.10,South,180,0.0,0.0,91,0.00,,,0.00,meteohub,2013-09-16 13:19:00,
2013-09-16 08:24:00,73.6,70.7,30.10,South,180,0.0,0.0,91,0.00,,,0.00,meteohub,2013-09-16 13:24:00,
2013-09-16 08:29:00,74.5,71.4,30.10,South,180,0.0,0.0,90,0.00,,,0.00,meteohub,2013-09-16 13:29:00,
2013-09-16 08:34:00,75.2,71.4,30.10,South,180,0.0,0.0,88,0.00,,,0.00,meteohub,2013-09-16 13:34:00,
2013-09-16 08:39:00,75.9,72.1,30.10,South,180,0.0,0.0,88,0.00,,,0.00,meteohub,2013-09-16 13:39:00,
2013-09-16 08:44:00,76.6,72.5,30.10,West,270,1.0,1.0,87,0.00,,,0.00,meteohub,2013-09-16 13:44:00,
2013-09-16 08:49:00,77.5,73.0,30.10,NW,315,2.0,2.0,86,0.00,,,0.00,meteohub,2013-09-16 13:49:00,
2013-09-16 08:54:00,78.3,73.8,30.11,SE,135,1.0,2.0,86,0.00,,,0.00,meteohub,2013-09-16 13:54:00,
2013-09-16 08:59:00,79.2,73.9,30.10,West,270,2.0,2.0,84,0.00,,,0.00,meteohub,2013-09-16 13:59:00,
2013-09-16 09:04:00,79.7,74.1,30.11,NW,315,2.0,2.0,83,0.00,,,0.00,meteohub,2013-09-16 14:04:00,
2013-09-16 09:09:00,80.1,74.1,30.10,East,90,1.0,2.0,82,0.00,,,0.00,meteohub,2013-09-16 14:09:00,
2013-09-16 09:14:00,80.2,74.3,30.11,North,0,1.0,2.0,82,0.00,,,0.00,meteohub,2013-09-16 14:14:00,
2013-09-16 09:19:00,80.6,74.3,30.11,WSW,248,2.0,2.0,81,0.00,,,0.00,meteohub,2013-09-16 14:19:00,
2013-09-16 09:24:00,81.0,74.1,30.11,East,90,1.0,2.0,80,0.00,,,0.00,meteohub,2013-09-16 14:24:00,
2013-09-16 09:29:00,81.3,74.1,30.11,NW,315,2.0,2.0,79,0.00,,,0.00,meteohub,2013-09-16 14:29:00,
2013-09-16 09:34:00,81.5,74.3,30.11,NW,315,2.0,2.0,79,0.00,,,0.00,meteohub,2013-09-16 14:34:00,
2013-09-16 09:40:00,81.3,73.8,30.11,East,90,2.0,2.0,78,0.00,,,0.00,meteohub,2013-09-16 14:40:00,
2013-09-16 09:45:00,81.3,74.1,30.11,NE,45,1.0,4.0,79,0.00,,,0.00,meteohub,2013-09-16 14:45:00,
2013-09-16 09:50:00,81.5,74.3,30.11,NE,45,2.0,4.0,79,0.00,,,0.00,meteohub,2013-09-16 14:50:00,
2013-09-16 09:55:00,81.9,74.7,30.11,NE,45,1.0,4.0,79,0.00,,,0.00,meteohub,2013-09-16 14:55:00,
2013-09-16 10:00:00,82.8,74.8,30.11,NE,45,2.0,3.0,77,0.00,,,0.00,meteohub,2013-09-16 15:00:00,
2013-09-16 10:05:00,83.8,75.0,30.11,SW,225,2.0,3.0,75,0.00,,,0.00,meteohub,2013-09-16 15:05:00,
2013-09-16 10:10:00,85.1,75.9,30.11,West,270,2.0,3.0,74,0.00,,,0.00,meteohub,2013-09-16 15:10:00,
2013-09-16 10:15:00,86.2,74.8,30.11,East,90,2.0,3.0,69,0.00,,,0.00,meteohub,2013-09-16 15:15:00,
2013-09-16 10:20:00,86.4,73.6,30.11,East,90,4.0,4.0,66,0.00,,,0.00,meteohub,2013-09-16 15:20:00,
2013-09-16 10:25:00,86.2,73.4,30.12,North,0,2.0,5.0,66,0.00,,,0.00,meteohub,2013-09-16 15:25:00,
2013-09-16 10:30:00,86.9,73.8,30.11,SW,225,2.0,5.0,65,0.00,,,0.00,meteohub,2013-09-16 15:30:00,
2013-09-16 10:35:00,88.2,73.9,30.12,East,90,2.0,4.0,63,0.00,,,0.00,meteohub,2013-09-16 15:35:00,
2013-09-16 10:40:00,88.3,73.6,30.12,NE,45,2.0,4.0,62,0.00,,,0.00,meteohub,2013-09-16 15:40:00,
2013-09-16 10:46:00,88.5,73.8,30.12,North,0,2.0,4.0,62,0.00,,,0.00,meteohub,2013-09-16 15:46:00,
2013-09-16 10:51:00,88.9,73.8,30.12,NW,315,3.0,4.0,61,0.00,,,0.00,meteohub,2013-09-16 15:51:00,
2013-09-16 10:56:00,88.9,72.7,30.12,SW,225,3.0,4.0,59,0.00,,,0.00,meteohub,2013-09-16 15:56:00,
2013-09-16 11:01:00,88.7,73.6,30.12,NE,45,1.0,4.0,61,0.00,,,0.00,meteohub,2013-09-16 16:01:00,
2013-09-16 11:06:00,89.8,73.0,30.12,North,0,3.0,4.0,58,0.00,,,0.00,meteohub,2013-09-16 16:06:00,
2013-09-16 11:11:00,89.2,71.4,30.12,NE,45,2.0,4.0,56,0.00,,,0.00,meteohub,2013-09-16 16:11:00,
2013-09-16 11:16:00,89.2,72.0,30.12,NE,45,2.0,4.0,57,0.00,,,0.00,meteohub,2013-09-16 16:16:00,
2013-09-16 11:21:00,90.7,71.2,30.12,ENE,68,4.0,5.0,53,0.00,,,0.00,meteohub,2013-09-16 16:21:00,
2013-09-16 11:26:00,90.3,70.9,30.11,North,0,2.0,5.0,53,0.00,,,0.00,meteohub,2013-09-16 16:26:00,
2013-09-16 11:31:00,90.1,71.8,30.12,West,270,4.0,5.0,55,0.00,,,0.00,meteohub,2013-09-16 16:31:00,
2013-09-16 11:36:00,92.7,72.0,30.11,NE,45,2.0,4.0,51,0.00,,,0.00,meteohub,2013-09-16 16:36:00,
2013-09-16 11:41:00,93.6,71.6,30.11,North,0,3.0,4.0,49,0.00,,,0.00,meteohub,2013-09-16 16:41:00,
2013-09-16 11:46:00,93.7,71.1,30.11,East,90,4.0,4.0,48,0.00,,,0.00,meteohub,2013-09-16 16:46:00,
2013-09-16 11:51:00,94.1,71.4,30.11,NE,45,3.0,5.0,48,0.00,,,0.00,meteohub,2013-09-16 16:51:00,
2013-09-16 11:56:00,94.6,71.2,30.11,East,90,4.0,5.0,47,0.00,,,0.00,meteohub,2013-09-16 16:56:00,
2013-09-16 12:01:00,91.9,70.0,30.11,West,270,2.0,6.0,49,0.00,,,0.00,meteohub,2013-09-16 17:01:00,
2013-09-16 12:06:00,92.8,70.9,30.11,SW,225,2.0,6.0,49,0.00,,,0.00,meteohub,2013-09-16 17:06:00,
2013-09-16 12:12:00,92.7,70.7,30.11,North,0,2.0,6.0,49,0.00,,,0.00,meteohub,2013-09-16 17:12:00,
2013-09-16 12:17:00,93.2,70.0,30.10,NW,315,2.0,4.0,47,0.00,,,0.00,meteohub,2013-09-16 17:17:00,
2013-09-16 12:22:00,93.7,70.5,30.10,NE,45,2.0,5.0,47,0.00,,,0.00,meteohub,2013-09-16 17:22:00,
2013-09-16 12:27:00,96.1,71.2,30.10,NW,315,6.0,6.0,45,0.00,,,0.00,meteohub,2013-09-16 17:27:00,
2013-09-16 12:32:00,97.0,70.7,30.10,West,270,4.0,6.0,43,0.00,,,0.00,meteohub,2013-09-16 17:32:00,
2013-09-16 12:37:00,97.5,70.5,30.09,NE,45,4.0,6.0,42,0.00,,,0.00,meteohub,2013-09-16 17:37:00,
2013-09-16 12:42:00,97.2,70.2,30.09,SE,135,4.0,6.0,42,0.00,,,0.00,meteohub,2013-09-16 17:42:00,
2013-09-16 12:47:00,95.5,70.2,30.09,NE,45,4.0,6.0,44,0.00,,,0.00,meteohub,2013-09-16 17:47:00,
2013-09-16 12:52:00,94.8,70.9,30.09,NE,45,4.0,6.0,46,0.00,,,0.00,meteohub,2013-09-16 17:52:00,
2013-09-16 12:57:00,97.2,70.9,30.09,East,90,5.0,8.0,43,0.00,,,0.00,meteohub,2013-09-16 17:57:00,
2013-09-16 13:02:00,96.8,70.5,30.08,East,90,4.0,8.0,43,0.00,,,0.00,meteohub,2013-09-16 18:02:00,
2013-09-16 13:07:00,96.6,71.1,30.09,SW,225,4.0,6.0,44,0.00,,,0.00,meteohub,2013-09-16 18:07:00,
2013-09-16 13:12:00,98.1,71.8,30.08,NE,45,4.0,6.0,43,0.00,,,0.00,meteohub,2013-09-16 18:12:00,
2013-09-16 13:17:00,98.1,70.3,30.08,NW,315,5.0,6.0,41,0.00,,,0.00,meteohub,2013-09-16 18:17:00,
2013-09-16 13:22:00,96.6,71.1,30.08,NE,45,2.0,5.0,44,0.00,,,0.00,meteohub,2013-09-16 18:22:00,
2013-09-16 13:27:00,96.6,70.5,30.07,East,90,4.0,5.0,43,0.00,,,0.00,meteohub,2013-09-16 18:27:00,
2013-09-16 13:32:00,97.3,71.1,30.07,WSW,248,3.0,5.0,43,0.00,,,0.00,meteohub,2013-09-16 18:32:00,
2013-09-16 13:38:00,96.6,70.5,30.07,North,0,5.0,5.0,43,0.00,,,0.00,meteohub,2013-09-16 18:38:00,
2013-09-16 13:43:00,97.0,70.2,30.06,NE,45,6.0,6.0,42,0.00,,,0.00,meteohub,2013-09-16 18:43:00,
2013-09-16 13:48:00,97.7,70.7,30.06,North,0,3.0,6.0,42,0.00,,,0.00,meteohub,2013-09-16 18:48:00,
2013-09-16 13:53:00,98.2,69.8,30.06,SW,225,3.0,6.0,40,0.00,,,0.00,meteohub,2013-09-16 18:53:00,
2013-09-16 13:58:00,99.3,69.3,30.06,NE,45,8.0,8.0,38,0.00,,,0.00,meteohub,2013-09-16 18:58:00,
2013-09-16 14:03:00,99.5,70.2,30.05,North,0,4.0,5.0,39,0.00,,,0.00,meteohub,2013-09-16 19:03:00,
2013-09-16 14:09:00,100.0,70.7,30.05,North,0,8.0,8.0,39,0.00,,,0.00,meteohub,2013-09-16 19:09:00,
2013-09-16 14:14:00,101.1,71.6,30.05,NW,315,5.0,8.0,39,0.00,,,0.00,meteohub,2013-09-16 19:14:00,
2013-09-16 14:19:00,101.7,72.1,30.05,West,270,3.0,8.0,39,0.00,,,0.00,meteohub,2013-09-16 19:19:00,
2013-09-16 14:24:00,103.3,71.1,30.04,East,90,3.0,8.0,36,0.00,,,0.00,meteohub,2013-09-16 19:24:00,
2013-09-16 14:29:00,102.9,70.9,30.04,East,90,3.0,6.0,36,0.00,,,0.00,meteohub,2013-09-16 19:29:00,
2013-09-16 14:34:00,103.3,71.1,30.04,NW,315,2.0,6.0,36,0.00,,,0.00,meteohub,2013-09-16 19:34:00,
2013-09-16 14:39:00,102.6,70.5,30.04,SW,225,3.0,6.0,36,0.00,,,0.00,meteohub,2013-09-16 19:39:00,
2013-09-16 14:44:00,102.0,70.9,30.03,West,270,2.0,6.0,37,0.00,,,0.00,meteohub,2013-09-16 19:44:00,
2013-09-16 14:49:00,101.1,70.0,30.03,North,0,2.0,4.0,37,0.00,,,0.00,meteohub,2013-09-16 19:49:00,
2013-09-16 14:54:00,100.2,68.4,30.03,NW,315,2.0,4.0,36,0.00,,,0.00,meteohub,2013-09-16 19:54:00,
2013-09-16 14:59:00,99.7,68.7,30.03,SW,225,4.0,4.0,37,0.00,,,0.00,meteohub,2013-09-16 19:59:00,
2013-09-16 15:04:00,98.6,68.5,30.03,NE,45,4.0,4.0,38,0.00,,,0.00,meteohub,2013-09-16 20:04:00,
2013-09-16 15:09:00,97.2,68.7,30.03,NW,315,4.0,4.0,40,0.00,,,0.00,meteohub,2013-09-16 20:09:00,
2013-09-16 15:14:00,96.1,70.0,30.03,SW,225,2.0,6.0,43,0.00,,,0.00,meteohub,2013-09-16 20:14:00,
2013-09-16 15:19:00,96.1,70.0,30.02,NNE,23,2.0,6.0,43,0.00,,,0.00,meteohub,2013-09-16 20:19:00,
2013-09-16 15:24:00,96.6,70.5,30.02,SE,135,2.0,6.0,43,0.00,,,0.00,meteohub,2013-09-16 20:24:00,
2013-09-16 15:29:00,97.7,69.3,30.02,NW,315,2.0,5.0,40,0.00,,,0.00,meteohub,2013-09-16 20:29:00,
2013-09-16 15:34:00,97.2,69.4,30.02,North,0,3.0,5.0,41,0.00,,,0.00,meteohub,2013-09-16 20:34:00,
2013-09-16 15:40:00,98.6,68.5,30.02,SE,135,6.0,6.0,38,0.00,,,0.00,meteohub,2013-09-16 20:40:00,
2013-09-16 15:45:00,97.3,70.3,30.01,North,0,4.0,5.0,42,0.00,,,0.00,meteohub,2013-09-16 20:45:00,
2013-09-16 15:50:00,95.2,69.1,30.02,NE,45,4.0,9.0,43,0.00,,,0.00,meteohub,2013-09-16 20:50:00,
2013-09-16 15:55:00,93.7,69.3,30.02,NW,315,12.0,12.0,45,0.00,,,0.00,meteohub,2013-09-16 20:55:00,
2013-09-16 16:00:00,92.7,69.4,30.01,South,180,4.0,9.0,47,0.00,,,0.00,meteohub,2013-09-16 21:00:00,
2013-09-16 16:05:00,91.9,68.9,30.01,NNE,23,4.0,12.0,47,0.00,,,0.00,meteohub,2013-09-16 21:05:00,
2013-09-16 16:10:00,91.2,68.7,30.01,ENE,68,4.0,12.0,48,0.00,,,0.00,meteohub,2013-09-16 21:10:00,
2013-09-16 16:15:00,90.9,69.1,30.01,East,90,8.0,12.0,49,0.00,,,0.00,meteohub,2013-09-16 21:15:00,
2013-09-16 16:20:00,90.9,69.1,30.01,NE,45,3.0,8.0,49,0.00,,,0.00,meteohub,2013-09-16 21:20:00,
2013-09-16 16:25:00,90.3,68.5,30.01,ESE,113,8.0,14.0,49,0.00,,,0.00,meteohub,2013-09-16 21:25:00,
2013-09-16 16:30:00,89.8,69.3,30.01,NE,45,6.0,14.0,51,0.00,,,0.00,meteohub,2013-09-16 21:30:00,
2013-09-16 16:35:00,89.4,69.4,30.01,East,90,8.0,14.0,52,0.00,,,0.00,meteohub,2013-09-16 21:35:00,
2013-09-16 16:40:00,89.2,68.7,30.01,East,90,8.0,8.0,51,0.00,,,0.00,meteohub,2013-09-16 21:40:00,
2013-09-16 16:45:00,89.6,67.3,30.01,NE,45,5.0,8.0,48,0.00,,,0.00,meteohub,2013-09-16 21:45:00,
2013-09-16 16:50:00,89.4,68.4,30.01,ENE,68,3.0,10.0,50,0.00,,,0.00,meteohub,2013-09-16 21:50:00,
2013-09-16 16:55:00,89.6,67.8,30.01,East,90,3.0,10.0,49,0.00,,,0.00,meteohub,2013-09-16 21:55:00,
2013-09-16 17:00:00,89.4,67.8,30.00,NE,45,5.0,6.0,49,0.00,,,0.00,meteohub,2013-09-16 22:00:00,
2013-09-16 17:05:00,89.4,68.4,30.00,East,90,5.0,10.0,50,0.00,,,0.00,meteohub,2013-09-16 22:05:00,
2013-09-16 17:11:00,89.2,68.2,30.00,East,90,4.0,10.0,50,0.00,,,0.00,meteohub,2013-09-16 22:11:00,
2013-09-16 17:16:00,88.7,68.2,30.01,East,90,4.0,6.0,51,0.00,,,0.00,meteohub,2013-09-16 22:16:00,
2013-09-16 17:21:00,88.7,68.7,30.01,NE,45,3.0,7.0,52,0.00,,,0.00,meteohub,2013-09-16 22:21:00,
2013-09-16 17:26:00,88.5,68.7,30.01,NE,45,7.0,7.0,52,0.00,,,0.00,meteohub,2013-09-16 22:26:00,
2013-09-16 17:31:00,86.7,71.2,30.01,NE,45,6.0,8.0,60,0.00,,,0.00,meteohub,2013-09-16 22:31:00,
2013-09-16 17:36:00,85.6,72.1,30.01,East,90,8.0,11.0,64,0.00,,,0.00,meteohub,2013-09-16 22:36:00,
2013-09-16 17:41:00,85.1,72.0,30.01,NE,45,8.0,11.0,65,0.00,,,0.00,meteohub,2013-09-16 22:41:00,
2013-09-16 17:46:00,84.6,72.0,30.01,SSE,158,8.0,11.0,66,0.00,,,0.00,meteohub,2013-09-16 22:46:00,
2013-09-16 17:51:00,84.2,71.6,30.02,SE,135,7.0,11.0,66,0.00,,,0.00,meteohub,2013-09-16 22:51:00,
2013-09-16 17:56:00,84.2,71.2,30.01,SE,135,4.0,11.0,65,0.00,,,0.00,meteohub,2013-09-16 22:56:00,
2013-09-16 18:01:00,84.2,71.2,30.02,East,90,4.0,8.0,65,0.00,,,0.00,meteohub,2013-09-16 23:01:00,
2013-09-16 18:06:00,84.6,71.1,30.02,South,180,2.0,8.0,64,0.00,,,0.00,meteohub,2013-09-16 23:06:00,
2013-09-16 18:11:00,84.9,71.4,30.02,East,90,4.0,6.0,64,0.00,,,0.00,meteohub,2013-09-16 23:11:00,
2013-09-16 18:16:00,85.1,71.6,30.02,SE,135,1.0,6.0,64,0.00,,,0.00,meteohub,2013-09-16 23:16:00,
2013-09-16 18:22:00,85.8,71.8,30.02,South,180,3.0,5.0,63,0.00,,,0.00,meteohub,2013-09-16 23:22:00,
2013-09-16 18:27:00,85.8,71.8,30.02,North,0,2.0,5.0,63,0.00,,,0.00,meteohub,2013-09-16 23:27:00,
2013-09-16 18:32:00,85.8,71.2,30.03,NW,315,2.0,3.0,62,0.00,,,0.00,meteohub,2013-09-16 23:32:00,
2013-09-16 18:37:00,85.6,71.1,30.02,South,180,3.0,3.0,62,0.00,,,0.00,meteohub,2013-09-16 23:37:00,
2013-09-16 18:42:00,85.5,70.9,30.02,East,90,3.0,3.0,62,0.00,,,0.00,meteohub,2013-09-16 23:42:00,
2013-09-16 18:47:00,85.3,70.7,30.02,East,90,2.0,3.0,62,0.00,,,0.00,meteohub,2013-09-16 23:47:00,
2013-09-16 18:52:00,85.1,70.5,30.02,East,90,2.0,3.0,62,0.00,,,0.00,meteohub,2013-09-16 23:52:00,
2013-09-16 18:57:00,85.1,71.1,30.02,NE,45,1.0,3.0,63,0.00,,,0.00,meteohub,2013-09-16 23:57:00,
2013-09-16 19:02:00,85.1,71.1,30.03,East,90,0.0,3.0,63,0.00,,,0.00,meteohub,2013-09-17 00:02:00,
2013-09-16 19:07:00,84.9,70.9,30.03,East,90,0.0,3.0,63,0.00,,,0.00,meteohub,2013-09-17 00:07:00,
2013-09-16 19:12:00,84.9,70.5,30.03,East,90,0.0,2.0,62,0.00,,,0.00,meteohub,2013-09-17 00:12:00,
2013-09-16 19:17:00,84.7,70.7,30.03,East,90,0.0,0.0,63,0.00,,,0.00,meteohub,2013-09-17 00:17:00,
2013-09-16 19:22:00,84.4,70.9,30.03,East,90,0.0,0.0,64,0.00,,,0.00,meteohub,2013-09-17 00:22:00,
2013-09-16 19:27:00,84.0,71.1,30.03,East,90,0.0,0.0,65,0.00,,,0.00,meteohub,2013-09-17 00:27:00,
2013-09-16 19:32:00,83.8,70.9,30.04,East,90,0.0,0.0,65,0.00,,,0.00,meteohub,2013-09-17 00:32:00,
2013-09-16 19:37:00,83.5,70.5,30.04,East,90,0.0,0.0,65,0.00,,,0.00,meteohub,2013-09-17 00:37:00,
2013-09-16 19:42:00,83.1,70.5,30.05,East,90,0.0,0.0,66,0.00,,,0.00,meteohub,2013-09-17 00:42:00,
2013-09-16 19:47:00,82.9,70.3,30.04,East,90,0.0,0.0,66,0.00,,,0.00,meteohub,2013-09-17 00:47:00,
2013-09-16 19:52:00,82.8,70.7,30.05,East,90,0.0,0.0,67,0.00,,,0.00,meteohub,2013-09-17 00:52:00,
2013-09-16 19:57:00,82.6,70.5,30.05,East,90,0.0,0.0,67,0.00,,,0.00,meteohub,2013-09-17 00:57:00,
2013-09-16 20:02:00,82.4,70.3,30.05,NW,315,0.0,0.0,67,0.00,,,0.00,meteohub,2013-09-17 01:02:00,
2013-09-16 20:07:00,82.4,70.7,30.06,NW,315,1.0,2.0,68,0.00,,,0.00,meteohub,2013-09-17 01:07:00,
2013-09-16 20:12:00,82.4,70.7,30.05,NW,315,2.0,2.0,68,0.00,,,0.00,meteohub,2013-09-17 01:12:00,
2013-09-16 20:17:00,82.4,70.7,30.05,NW,315,2.0,2.0,68,0.00,,,0.00,meteohub,2013-09-17 01:17:00,
2013-09-16 20:22:00,82.2,71.1,30.06,West,270,2.0,2.0,69,0.00,,,0.00,meteohub,2013-09-17 01:22:00,
2013-09-16 20:28:00,82.0,70.9,30.06,NW,315,2.0,2.0,69,0.00,,,0.00,meteohub,2013-09-17 01:28:00,
2013-09-16 20:33:00,82.0,71.2,30.06,NW,315,2.0,2.0,70,0.00,,,0.00,meteohub,2013-09-17 01:33:00,
2013-09-16 20:38:00,81.7,71.8,30.06,South,180,2.0,4.0,72,0.00,,,0.00,meteohub,2013-09-17 01:38:00,
2013-09-16 20:43:00,81.5,72.0,30.06,South,180,1.0,4.0,73,0.00,,,0.00,meteohub,2013-09-17 01:43:00,
2013-09-16 20:48:00,81.3,72.3,30.06,South,180,1.0,2.0,74,0.00,,,0.00,meteohub,2013-09-17 01:48:00,
2013-09-16 20:53:00,81.1,72.5,30.07,NW,315,1.0,2.0,75,0.00,,,0.00,meteohub,2013-09-17 01:53:00,
2013-09-16 20:58:00,81.0,72.7,30.07,NW,315,2.0,2.0,76,0.00,,,0.00,meteohub,2013-09-17 01:58:00,
2013-09-16 21:03:00,81.0,72.7,30.07,NW,315,2.0,3.0,76,0.00,,,0.00,meteohub,2013-09-17 02:03:00,
2013-09-16 21:08:00,80.8,72.5,30.08,West,270,2.0,3.0,76,0.00,,,0.00,meteohub,2013-09-17 02:08:00,
2013-09-16 21:13:00,80.6,72.3,30.08,North,0,2.0,2.0,76,0.00,,,0.00,meteohub,2013-09-17 02:13:00,
2013-09-16 21:18:00,80.1,72.5,30.08,North,0,2.0,2.0,78,0.00,,,0.00,meteohub,2013-09-17 02:18:00,
2013-09-16 21:23:00,79.5,72.9,30.08,North,0,2.0,2.0,80,0.00,,,0.00,meteohub,2013-09-17 02:23:00,
2013-09-16 21:28:00,78.6,73.0,30.08,East,90,0.0,2.0,83,0.00,,,0.00,meteohub,2013-09-17 02:28:00,
2013-09-16 21:33:00,77.9,73.0,30.09,NE,45,1.0,3.0,85,0.00,,,0.00,meteohub,2013-09-17 02:33:00,
2013-09-16 21:38:00,77.4,72.9,30.08,NE,45,0.0,3.0,86,0.00,,,0.00,meteohub,2013-09-17 02:38:00,
2013-09-16 21:43:00,77.2,72.7,30.08,East,90,1.0,2.0,86,0.00,,,0.00,meteohub,2013-09-17 02:43:00,
2013-09-16 21:48:00,76.8,73.4,30.09,North,0,2.0,2.0,89,0.00,,,0.00,meteohub,2013-09-17 02:48:00,
2013-09-16 21:54:00,76.6,73.4,30.09,NE,45,0.0,2.0,90,0.00,,,0.00,meteohub,2013-09-17 02:54:00,
2013-09-16 21:59:00,76.5,73.2,30.09,East,90,2.0,2.0,90,0.00,,,0.00,meteohub,2013-09-17 02:59:00,
2013-09-16 22:04:00,76.5,73.6,30.09,SE,135,2.0,2.0,91,0.00,,,0.00,meteohub,2013-09-17 03:04:00,
2013-09-16 22:09:00,76.5,73.6,30.09,SE,135,2.0,2.0,91,0.00,,,0.00,meteohub,2013-09-17 03:09:00,
2013-09-16 22:14:00,76.1,73.2,30.09,East,90,1.0,2.0,91,0.00,,,0.00,meteohub,2013-09-17 03:14:00,
2013-09-16 22:19:00,76.5,73.6,30.10,East,90,0.0,2.0,91,0.00,,,0.00,meteohub,2013-09-17 03:19:00,
2013-09-16 22:24:00,76.5,73.6,30.09,East,90,0.0,2.0,91,0.00,,,0.00,meteohub,2013-09-17 03:24:00,
2013-09-16 22:29:00,76.5,73.6,30.10,East,90,0.0,2.0,91,0.00,,,0.00,meteohub,2013-09-17 03:29:00,
2013-09-16 22:34:00,76.5,73.6,30.10,East,90,0.0,1.0,91,0.00,,,0.00,meteohub,2013-09-17 03:34:00,
2013-09-16 22:39:00,76.5,73.6,30.10,East,90,0.0,0.0,91,0.00,,,0.00,meteohub,2013-09-17 03:39:00,
2013-09-16 22:44:00,76.5,73.6,30.10,East,90,0.0,0.0,91,0.00,,,0.00,meteohub,2013-09-17 03:44:00,
2013-09-16 22:49:00,76.5,73.6,30.10,East,90,0.0,0.0,91,0.00,,,0.00,meteohub,2013-09-17 03:49:00,
2013-09-16 22:54:00,76.5,73.9,30.10,East,90,0.0,0.0,92,0.00,,,0.00,meteohub,2013-09-17 03:54:00,
2013-09-16 22:59:00,76.5,73.9,30.10,East,90,0.0,0.0,92,0.00,,,0.00,meteohub,2013-09-17 03:59:00,
2013-09-16 23:01:00,76.5,73.9,30.10,East,90,0.0,0.0,92,0.00,,,0.00,meteohub,2013-09-17 04:01:00,
2013-09-16 23:02:00,76.5,73.9,30.10,East,90,0.0,0.0,92,0.00,,,0.00,meteohub,2013-09-17 04:02:00,
2013-09-16 23:06:00,76.5,73.9,30.10,East,90,0.0,0.0,92,0.00,,,0.00,meteohub,2013-09-17 04:06:00,
2013-09-16 23:11:00,76.1,73.9,30.10,West,270,0.0,0.0,93,0.00,,,0.00,meteohub,2013-09-17 04:11:00,
2013-09-16 23:16:00,76.1,73.9,30.10,SW,225,0.0,0.0,93,0.00,,,0.00,meteohub,2013-09-17 04:16:00,
2013-09-16 23:21:00,75.9,74.1,30.10,SW,225,0.0,0.0,94,0.00,,,0.00,meteohub,2013-09-17 04:21:00,
2013-09-16 23:26:00,75.9,74.1,30.11,NE,45,0.0,0.0,94,0.00,,,0.00,meteohub,2013-09-17 04:26:00,
2013-09-16 23:32:00,75.9,74.1,30.10,WSW,248,0.0,0.0,94,0.00,,,0.00,meteohub,2013-09-17 04:32:00,
2013-09-16 23:37:00,75.9,74.3,30.10,WSW,248,0.0,0.0,95,0.00,,,0.00,meteohub,2013-09-17 04:37:00,
2013-09-16 23:42:00,75.9,74.3,30.10,WSW,248,0.0,0.0,95,0.00,,,0.00,meteohub,2013-09-17 04:42:00,
2013-09-16 23:47:00,75.9,74.3,30.10,WSW,248,0.0,0.0,95,0.00,,,0.00,meteohub,2013-09-17 04:47:00,
2013-09-16 23:52:00,75.9,74.3,30.10,WSW,248,0.0,0.0,95,0.00,,,0.00,meteohub,2013-09-17 04:52:00,
2013-09-16 23:57:00,75.9,74.3,30.10,WSW,248,0.0,0.0,95,0.00,,,0.00,meteohub,2013-09-17 04:57:00,